Elk City, Idaho
Current Conditions -  °F | °C
As of 2:35 AM on Saturday 01 Nov 2014 (Local Time) from KGIC Reporting Station
Overcast Overcast  
Wind Chill: 43°   Ceiling: 2500
Heat Index: 46°   Visibility: 10mi
Dew Point: 37°   Wind: 5mph
Humidity: 73%   Direction: 110°ESE
Pressure: 29.78"   Gusts: NA
Location:  45.83°N, 115.44°W
Report Text: KGIC 010935Z AUTO 11004KT 10SM OVC025 08/03 A2978 RMK AO1 T00750030
Loading
Personal Weather Stations






























Interactive Weather Map New forecast layout! Learn more

10-Day Weather Forecast

Advertisements
Track Severe Weather on mobile